ADDS METAR Data INFO
IDs: Format: Raw Decoded Include TAF

Data at: 0551 UTC 11 Dec 2017

KLWM 110454Z AUTO 20007KT 10SM OVC120 01/M05 A2995 RMK AO2 SLP143 T00061050 400391011
KLWM 110354Z AUTO 20006KT 10SM OVC120 00/M05 A2995 RMK AO2 SLP143 T00001050
KLWM 110254Z 19004KT 10SM BKN110 00/M05 A2995 RMK AO2 SLP142 T00001050 51010
KLWM 110154Z 20005KT 10SM FEW120 M01/M06 A2994 RMK AO2 SLP140 T10061056
KLWM 110054Z 21005KT 10SM CLR M01/M06 A2993 RMK AO2 SLP136 T10061056
KLWM 102354Z 20003KT 10SM CLR M01/M06 A2992 RMK AO2 SLP132 T10061056 10039 21006 51024
KLWM 102254Z 21007KT 10SM CLR 01/M06 A2990 RMK AO2 SLP126 T00111056
KLWM 102154Z 24009KT 10SM CLR 02/M06 A2988 RMK AO2 SLP119 T00221056
KLWM 102054Z 27009KT 10SM CLR 03/M06 A2985 RMK AO2 SLP108 T00281061 53022
KLWM 101954Z 26011G18KT 10SM SCT039 03/M05 A2982 RMK AO2 SLP099 T00331050
KLWM 101854Z 24012G17KT 10SM BKN037 03/M04 A2979 RMK AO2 SLP090 T00331044
KLWM 101754Z 26010KT 10SM SCT034 03/M04 A2978 RMK AO2 SLP086 T00331039 10039 21011 51004
KLWM 101654Z 24011KT 10SM CLR 03/M03 A2978 RMK AO2 SLP085 T00281033
KLWM 101554Z 25009KT 10SM CLR 02/M03 A2978 RMK AO2 SLP085 T00171028
KLWM 101454Z 25009KT 10SM CLR 01/M03 A2977 RMK AO2 SLP082 T00111033 51022
KLWM 101354Z 24008KT 10SM CLR 01/M03 A2975 RMK AO2 SLP075 T00061033
KLWM 101254Z 23007KT 10SM CLR M01/M03 A2973 RMK AO2 SLP067 T10061033
KLWM 101154Z 25008KT 10SM FEW047 M01/M03 A2970 RMK AO2 SLP059 60000 70036 T10061028 10006 21006 53019
KLWM 101054Z AUTO 25007KT 10SM FEW070 OVC090 00/M02 A2967 RMK AO2 SLP049 T00001022
KLWM 100954Z AUTO 26004KT 9SM SCT060 OVC080 00/M02 A2966 RMK AO2 SNE05B35E54 SLP044 P0000 T00001022
KLWM 100854Z AUTO 26004KT 6SM -SN BR FEW013 OVC060 00/M02 A2964 RMK AO2 SNB40 SLP040 P0000 60000 T00001022 56002
KLWM 100754Z AUTO 26004KT 10SM OVC080 00/M02 A2965 RMK AO2 SLP041 T00001022
KLWM 100654Z AUTO 30003KT 10SM BKN070 OVC090 00/M02 A2964 RMK AO2 UPB10E22SNE00 SLP037 P0000 T00001022
KLWM 100553Z AUTO 32005KT 5SM -SN BR FEW008 SCT016 OVC037 00/M02 A2965 RMK AO2 SLP042 P0000 60008 T00001022 10006 20000 55005
KLWM 100552Z AUTO 31005KT 5SM -SN BR FEW008 SCT016 OVC037 00/M02 A2965 RMK AO2 P0000
KLWM 100545Z AUTO 32006KT 3SM -SN BR SCT007 BKN014 OVC035 00/M02 A2965 RMK AO2 P0000 T00001022
KLWM 100534Z AUTO 32005KT 3SM -SN BR FEW008 BKN016 OVC029 00/M02 A2965 RMK AO2 P0000 T00001022
KLWM 100454Z AUTO 34007KT 3SM -SN BR BKN012 OVC022 00/M02 A2964 RMK AO2 SLP039 P0000 T00001022 400280000
KLWM 100420Z AUTO 34005KT 6SM -SN BR BKN011 OVC021 00/M02 A2965 RMK AO2 P0000 T00001022
KLWM 100354Z AUTO 35007KT 3SM -SN BR BKN009 OVC025 00/M02 A2965 RMK AO2 SLP041 P0000 T00001022
KLWM 100346Z AUTO 35008KT 3SM -SN BR BKN008 OVC025 00/M02 A2964 RMK AO2 P0000 T00001022
KLWM 100337Z AUTO 35007KT 2 1/2SM -SN BR BKN008 OVC021 00/M02 A2965 RMK AO2 P0000 T00001022
KLWM 100254Z 36008KT 1SM -SN BR OVC008 00/M02 A2967 RMK AO2 SLP048 P0002 60008 T00001017 56020
KLWM 100215Z 36009KT 1 1/4SM -SN BR OVC005 00/M02 A2967 RMK AO2 P0000 T00001017
KLWM 100154Z 35008KT 1 1/4SM -SN BR OVC004 00/M02 A2968 RMK AO2 SLP050 P0004 T00001017
KLWM 100147Z 01009KT 1SM -SN BR OVC004 00/M02 A2967 RMK AO2 PRESFR P0004 T00001017
KLWM 100124Z 36011KT 3/4SM -SN BR OVC005 01/M02 A2969 RMK AO2 P0002 T00061017
KLWM 100054Z 36008KT 1SM -SN BR OVC005 01/M02 A2971 RMK AO2 SLP061 P0002 T00061017
KLWM 100045Z 36009KT 1 1/4SM -SN BR OVC005 01/M02 A2971 RMK AO2 P0002 T00061017
KLWM 100031Z 36010KT 1SM -SN BR OVC004 01/M02 A2972 RMK AO2 P0002 T00061017
KLWM 100024Z 35008KT 3/4SM -SN BR OVC005 01/M02 A2973 RMK AO2 P0002 T00061017
KLWM 100016Z 36009KT 1SM -SN BR OVC005 01/M02 A2971 RMK AO2 P0002 T00061017
KLWM 092354Z 36010KT 1SM -SN BR OVC004 01/M02 A2973 RMK AO2 SLP068 P0006 60025 T00061017 10006 20000 56030
KLWM 092346Z 35007KT 1SM -SN BR OVC004 01/M02 A2975 RMK AO2 P0006 T00061017
KLWM 092332Z 36008KT 3/4SM -SN BR OVC004 01/M02 A2974 RMK AO2 P0005 T00061017
KLWM 092321Z 01009KT 1/2SM SN FG OVC004 00/M02 A2974 RMK AO2 P0004 T00001017
KLWM 092312Z 01008KT 3/4SM -SN BR OVC004 01/M02 A2974 RMK AO2 PRESFR P0002 T00061017
KLWM 092254Z 36010KT 1SM -SN BR OVC004 00/M02 A2976 RMK AO2 SLP079 P0004 T00001017
KLWM 092223Z 36007KT 1SM -SN BR OVC004 00/M02 A2977 RMK AO2 P0002 T00001017
KLWM 092201Z 36010KT 3/4SM -SN BR OVC004 00/M02 A2977 RMK AO2 P0001 T00001017
KLWM 092154Z 36009KT 3/4SM -SN BR OVC006 00/M02 A2978 RMK AO2 PRESFR SLP085 P0004 T00001017
KLWM 092054Z 01007KT 3/4SM -SN BR OVC005 00/M02 A2982 RMK AO2 SLP099 P0004 60011 T00001017 58020
KLWM 092042Z 36007KT 3/4SM -SN BR OVC005 00/M02 A2982 RMK AO2 P0004 T00001017
KLWM 092013Z 01006KT 1/4SM SN FG OVC004 00/M02 A2983 RMK AO2 P0002 T00001017
KLWM 092001Z 01005KT 1/4SM SN FG OVC005 00/M02 A2985 RMK AO2 P0000 T00001017
KLWM 091954Z 36004KT 3/4SM -SN BR OVC005 00/M02 A2985 RMK AO2 SLP110 P0004 T00001017
KLWM 091951Z 36003KT 3/4SM -SN BR OVC005 00/M02 A2986 RMK AO2 P0003
KLWM 091912Z 35004KT 3/4SM -SN BR OVC004 01/M01 A2988 RMK AO2 P0000 T00061011
KLWM 091854Z 35005KT 3/4SM -SN BR BKN006 OVC012 01/M02 A2988 RMK AO2 SLP119 P0003 T00061017
KLWM 091852Z 36004KT 3/4SM -SN BR SCT008 OVC011 01/M02 A2987 RMK AO2 P0003
KLWM 091831Z 05004KT 1/2SM SN FG SCT006 OVC010 01/M02 A2989 RMK AO2 P0003 T00061017
KLWM 091804Z 06004KT 1/2SM SN FG BKN006 BKN010 OVC017 01/M02 A2992 RMK AO2 P0000 T00061017
KLWM 091754Z 06005KT 3/4SM -SN BR SCT007 BKN012 OVC016 01/M01 A2992 RMK AO2 SLP133 P0003 60003 T00061011 10028 20006 56019